createdAt,value
2023-04-05T00:00:33.698Z,1020.41
2023-04-05T00:01:33.744Z,1020.41
2023-04-05T00:02:33.715Z,1020.37
2023-04-05T00:03:33.767Z,1020.40
2023-04-05T00:04:33.813Z,1020.37
2023-04-05T00:05:33.667Z,1020.39
2023-04-05T00:06:33.682Z,1020.40
2023-04-05T00:07:33.660Z,1020.37
2023-04-05T00:08:33.653Z,1020.38
2023-04-05T00:09:33.648Z,1020.39
2023-04-05T00:10:33.646Z,1020.41
2023-04-05T00:11:33.637Z,1020.41
2023-04-05T00:12:33.637Z,1020.32
2023-04-05T00:13:33.633Z,1020.35
2023-04-05T00:14:33.624Z,1020.34
2023-04-05T00:15:33.635Z,1020.37
2023-04-05T00:16:33.636Z,1020.33
2023-04-05T00:17:33.654Z,1020.32
2023-04-05T00:18:33.603Z,1020.36
2023-04-05T00:19:33.604Z,1020.36
2023-04-05T00:20:33.600Z,1020.34
2023-04-05T00:21:33.586Z,1020.35
2023-04-05T00:22:33.582Z,1020.34
2023-04-05T00:23:33.578Z,1020.38
2023-04-05T00:24:33.576Z,1020.34
2023-04-05T00:25:33.572Z,1020.35
2023-04-05T00:26:33.567Z,1020.31
2023-04-05T00:27:33.555Z,1020.31
2023-04-05T00:28:33.556Z,1020.30
2023-04-05T00:29:33.547Z,1020.29
2023-04-05T00:30:33.546Z,1020.28
2023-04-05T00:31:33.578Z,1020.27
2023-04-05T00:32:33.573Z,1020.23
2023-04-05T00:33:33.526Z,1020.30
2023-04-05T00:34:33.567Z,1020.28
2023-04-05T00:35:33.568Z,1020.27
2023-04-05T00:36:33.508Z,1020.26
2023-04-05T00:37:33.501Z,1020.29
2023-04-05T00:38:33.504Z,1020.32
2023-04-05T00:39:33.490Z,1020.27
2023-04-05T00:40:33.499Z,1020.26
2023-04-05T00:41:33.475Z,1020.29
2023-04-05T00:42:33.478Z,1020.31
2023-04-05T00:43:33.469Z,1020.32
2023-04-05T00:44:33.463Z,1020.28
2023-04-05T00:45:33.460Z,1020.32
2023-04-05T00:46:33.501Z,1020.33
2023-04-05T00:47:33.519Z,1020.29
2023-04-05T00:48:33.443Z,1020.30
2023-04-05T00:49:33.446Z,1020.29
2023-04-05T00:50:33.433Z,1020.25
2023-04-05T00:51:33.426Z,1020.28
2023-04-05T00:52:33.426Z,1020.27
2023-04-05T00:53:33.421Z,1020.28
2023-04-05T00:54:33.432Z,1020.24
2023-04-05T00:55:33.403Z,1020.26
2023-04-05T00:56:34.965Z,1020.24
2023-04-05T00:57:33.393Z,1020.23
2023-04-05T00:58:33.415Z,1020.24
2023-04-05T00:59:33.466Z,1020.22
2023-04-05T01:00:33.380Z,1020.22
2023-04-05T01:01:33.407Z,1020.18
2023-04-05T01:02:33.380Z,1020.20
2023-04-05T01:03:33.381Z,1020.20
2023-04-05T01:04:33.400Z,1020.13
2023-04-05T01:05:33.358Z,1020.14
2023-04-05T01:06:33.345Z,1020.11
2023-04-05T01:07:33.338Z,1020.12
2023-04-05T01:08:33.328Z,1020.16
2023-04-05T01:09:33.317Z,1020.13
2023-04-05T01:10:33.324Z,1020.14
2023-04-05T01:11:33.318Z,1020.13
2023-04-05T01:12:33.307Z,1020.10
2023-04-05T01:13:33.301Z,1020.15
2023-04-05T01:14:33.297Z,1020.14
2023-04-05T01:15:33.381Z,1020.16
2023-04-05T01:16:33.288Z,1020.13
2023-04-05T01:17:33.280Z,1020.13
2023-04-05T01:18:33.270Z,1020.16
2023-04-05T01:19:33.294Z,1020.11
2023-04-05T01:20:33.258Z,1020.12
2023-04-05T01:21:33.249Z,1020.12
2023-04-05T01:22:33.247Z,1020.12
2023-04-05T01:23:33.245Z,1020.11
2023-04-05T01:24:33.235Z,1020.13
2023-04-05T01:25:33.234Z,1020.07
2023-04-05T01:26:33.235Z,1020.08
2023-04-05T01:27:33.223Z,1020.07
2023-04-05T01:28:33.211Z,1020.09
2023-04-05T01:29:33.218Z,1020.09
2023-04-05T01:30:33.208Z,1020.02
2023-04-05T01:31:33.218Z,1020.05
2023-04-05T01:32:33.225Z,1020.01
2023-04-05T01:33:33.184Z,1020.01
2023-04-05T01:34:33.179Z,1019.99
2023-04-05T01:35:33.208Z,1019.99
2023-04-05T01:36:33.164Z,1019.97
2023-04-05T01:37:33.154Z,1019.99
2023-04-05T01:38:33.154Z,1019.98
2023-04-05T01:39:33.149Z,1019.94
2023-04-05T01:40:33.147Z,1020.02
2023-04-05T01:41:33.140Z,1019.94
2023-04-05T01:42:33.134Z,1020.02
2023-04-05T01:43:33.126Z,1019.99
2023-04-05T01:44:33.136Z,1019.97
2023-04-05T01:45:33.114Z,1019.99
2023-04-05T01:46:33.165Z,1020.01
2023-04-05T01:47:33.113Z,1020.01
2023-04-05T01:48:33.098Z,1020.02
2023-04-05T01:49:33.090Z,1019.94
2023-04-05T01:50:33.081Z,1019.97
2023-04-05T01:51:33.338Z,1019.96
2023-04-05T01:52:33.073Z,1020.00
2023-04-05T01:53:33.059Z,1019.97
2023-04-05T01:54:33.062Z,1019.98
2023-04-05T01:55:33.053Z,1019.94
2023-04-05T01:56:33.047Z,1019.95
2023-04-05T01:57:33.039Z,1019.93
2023-04-05T01:58:33.034Z,1019.98
2023-04-05T01:59:33.089Z,1019.96
2023-04-05T02:00:33.044Z,1019.91
2023-04-05T02:01:33.163Z,1019.89
2023-04-05T02:02:33.113Z,1019.88
2023-04-05T02:03:33.048Z,1019.85
2023-04-05T02:04:33.004Z,1019.87
2023-04-05T02:05:33.000Z,1019.82
2023-04-05T02:06:32.995Z,1019.84
2023-04-05T02:07:33.011Z,1019.82
2023-04-05T02:08:32.977Z,1019.81
2023-04-05T02:09:32.973Z,1019.83
2023-04-05T02:10:32.968Z,1019.82
2023-04-05T02:11:32.966Z,1019.82
2023-04-05T02:12:32.957Z,1019.82
2023-04-05T02:13:32.947Z,1019.85
2023-04-05T02:14:32.945Z,1019.82
2023-04-05T02:15:32.937Z,1019.85
2023-04-05T02:16:32.994Z,1019.85
2023-04-05T02:17:32.947Z,1019.83
2023-04-05T02:18:32.936Z,1019.85
2023-04-05T02:19:32.918Z,1019.84
2023-04-05T02:20:32.915Z,1019.84
2023-04-05T02:21:32.903Z,1019.83
2023-04-05T02:22:33.403Z,1019.81
2023-04-05T02:23:32.917Z,1019.80
2023-04-05T02:24:32.886Z,1019.84
2023-04-05T02:25:32.879Z,1019.80
2023-04-05T02:26:32.871Z,1019.84
2023-04-05T02:27:32.864Z,1019.79
2023-04-05T02:28:32.866Z,1019.75
2023-04-05T02:29:33.179Z,1019.78
2023-04-05T02:30:32.857Z,1019.75
2023-04-05T02:31:32.870Z,1019.74
2023-04-05T02:32:33.356Z,1019.75
2023-04-05T02:33:32.835Z,1019.72
2023-04-05T02:34:32.830Z,1019.70
2023-04-05T02:35:32.839Z,1019.70
2023-04-05T02:36:32.820Z,1019.67
2023-04-05T02:37:32.823Z,1019.67
2023-04-05T02:38:32.809Z,1019.65
2023-04-05T02:39:32.829Z,1019.67
2023-04-05T02:40:32.799Z,1019.67
2023-04-05T02:41:32.789Z,1019.66
2023-04-05T02:42:32.795Z,1019.65
2023-04-05T02:43:32.777Z,1019.65
2023-04-05T02:44:32.775Z,1019.64
2023-04-05T02:45:32.799Z,1019.65
2023-04-05T02:46:32.760Z,1019.63
2023-04-05T02:47:32.782Z,1019.65
2023-04-05T02:48:32.762Z,1019.63
2023-04-05T02:49:32.758Z,1019.62
2023-04-05T02:50:32.741Z,1019.63
2023-04-05T02:51:32.732Z,1019.65
2023-04-05T02:52:32.730Z,1019.64
2023-04-05T02:53:32.722Z,1019.63
2023-04-05T02:54:32.717Z,1019.62
2023-04-05T02:55:32.732Z,1019.61
2023-04-05T02:56:32.709Z,1019.65
2023-04-05T02:57:32.701Z,1019.59
2023-04-05T02:58:32.706Z,1019.61
2023-04-05T02:59:32.728Z,1019.57
2023-04-05T03:00:32.687Z,1019.53
2023-04-05T03:01:32.769Z,1019.60
2023-04-05T03:02:32.726Z,1019.58
2023-04-05T03:03:32.678Z,1019.57
2023-04-05T03:04:32.667Z,1019.58
2023-04-05T03:05:32.654Z,1019.62
2023-04-05T03:06:32.652Z,1019.63
2023-04-05T03:07:32.652Z,1019.60
2023-04-05T03:08:32.657Z,1019.61
2023-04-05T03:09:32.633Z,1019.64
2023-04-05T03:10:32.634Z,1019.64
2023-04-05T03:11:34.072Z,1019.58
2023-04-05T03:12:32.621Z,1019.62
2023-04-05T03:13:32.614Z,1019.57
2023-04-05T03:14:32.612Z,1019.54
2023-04-05T03:15:32.601Z,1019.53
2023-04-05T03:16:32.647Z,1019.55
2023-04-05T03:17:32.611Z,1019.52
2023-04-05T03:18:32.810Z,1019.54
2023-04-05T03:19:32.580Z,1019.53
2023-04-05T03:20:32.576Z,1019.52
2023-04-05T03:21:32.574Z,1019.49
2023-04-05T03:22:32.566Z,1019.49
2023-04-05T03:23:32.567Z,1019.47
2023-04-05T03:24:32.557Z,1019.44
2023-04-05T03:25:32.553Z,1019.50
2023-04-05T03:26:32.560Z,1019.49
2023-04-05T03:27:32.572Z,1019.47
2023-04-05T03:28:32.653Z,1019.46
2023-04-05T03:29:32.532Z,1019.44
2023-04-05T03:30:32.527Z,1019.44
2023-04-05T03:31:32.566Z,1019.45
2023-04-05T03:32:32.535Z,1019.44
2023-04-05T03:33:32.508Z,1019.43
2023-04-05T03:34:32.503Z,1019.47
2023-04-05T03:35:32.578Z,1019.42
2023-04-05T03:36:32.495Z,1019.47
2023-04-05T03:37:32.490Z,1019.43
2023-04-05T03:38:32.495Z,1019.44
2023-04-05T03:39:32.478Z,1019.42
2023-04-05T03:40:32.476Z,1019.37
2023-04-05T03:41:32.473Z,1019.40
2023-04-05T03:42:32.464Z,1019.38
2023-04-05T03:43:32.479Z,1019.39
2023-04-05T03:44:32.456Z,1019.38
2023-04-05T03:45:32.451Z,1019.39
2023-04-05T03:46:32.549Z,1019.41
2023-04-05T03:47:32.454Z,1019.37
2023-04-05T03:48:32.435Z,1019.36
2023-04-05T03:49:32.428Z,1019.38
2023-04-05T03:51:32.420Z,1019.40
2023-04-05T03:52:32.416Z,1019.41
2023-04-05T03:53:32.412Z,1019.44
2023-04-05T03:54:32.401Z,1019.44
2023-04-05T03:55:32.399Z,1019.43
2023-04-05T03:56:32.402Z,1019.43
2023-04-05T03:57:32.384Z,1019.40
2023-04-05T03:58:32.379Z,1019.44
2023-04-05T03:59:32.489Z,1019.39
2023-04-05T04:00:32.389Z,1019.37
2023-04-05T04:01:32.366Z,1019.38
2023-04-05T04:02:32.436Z,1019.35
2023-04-05T04:03:32.348Z,1019.37
2023-04-05T04:04:32.379Z,1019.41
2023-04-05T04:05:32.343Z,1019.40
2023-04-05T04:06:32.391Z,1019.39
2023-04-05T04:07:32.338Z,1019.30
2023-04-05T04:08:32.320Z,1019.32
2023-04-05T04:09:32.325Z,1019.27
2023-04-05T04:10:32.309Z,1019.34
2023-04-05T04:11:32.308Z,1019.28
2023-04-05T04:12:32.298Z,1019.25
2023-04-05T04:13:32.301Z,1019.27
2023-04-05T04:14:32.288Z,1019.27
2023-04-05T04:15:32.326Z,1019.26
2023-04-05T04:16:32.413Z,1019.27
2023-04-05T04:17:32.300Z,1019.26
2023-04-05T04:18:32.274Z,1019.26
2023-04-05T04:19:32.268Z,1019.24
2023-04-05T04:20:32.276Z,1019.22
2023-04-05T04:21:32.255Z,1019.22
2023-04-05T04:22:32.254Z,1019.20
2023-04-05T04:23:32.267Z,1019.25
2023-04-05T04:24:32.246Z,1019.20
2023-04-05T04:25:32.236Z,1019.25
2023-04-05T04:26:32.230Z,1019.22
2023-04-05T04:27:32.219Z,1019.24
2023-04-05T04:28:32.223Z,1019.28
2023-04-05T04:29:32.252Z,1019.22
2023-04-05T04:30:32.212Z,1019.29
2023-04-05T04:31:32.249Z,1019.29
2023-04-05T04:32:32.230Z,1019.27
2023-04-05T04:33:32.192Z,1019.32
2023-04-05T04:34:32.189Z,1019.32
2023-04-05T04:35:32.257Z,1019.30
2023-04-05T04:36:32.180Z,1019.30
2023-04-05T04:37:32.188Z,1019.30
2023-04-05T04:38:32.176Z,1019.34
2023-04-05T04:39:32.160Z,1019.35
2023-04-05T04:40:32.168Z,1019.41
2023-04-05T04:41:32.151Z,1019.35
2023-04-05T04:42:32.148Z,1019.42
2023-04-05T04:43:32.141Z,1019.39
2023-04-05T04:44:32.138Z,1019.41
2023-04-05T04:45:32.206Z,1019.42
2023-04-05T04:46:32.129Z,1019.39
2023-04-05T04:47:32.145Z,1019.37
2023-04-05T04:48:32.122Z,1019.34
2023-04-05T04:49:32.106Z,1019.37
2023-04-05T04:50:32.118Z,1019.37
2023-04-05T04:51:32.099Z,1019.37
2023-04-05T04:52:32.098Z,1019.37
2023-04-05T04:53:32.088Z,1019.37
2023-04-05T04:54:32.089Z,1019.39
2023-04-05T04:55:32.083Z,1019.38
2023-04-05T04:56:32.080Z,1019.39
2023-04-05T04:57:32.077Z,1019.32
2023-04-05T04:58:32.068Z,1019.36
2023-04-05T04:59:32.141Z,1019.32
2023-04-05T05:00:32.060Z,1019.39
2023-04-05T05:01:32.182Z,1019.38
2023-04-05T05:02:32.088Z,1019.40
2023-04-05T05:03:32.081Z,1019.40
2023-04-05T05:04:32.140Z,1019.37
2023-04-05T05:05:32.034Z,1019.36
2023-04-05T05:06:32.032Z,1019.36
2023-04-05T05:07:32.024Z,1019.37
2023-04-05T05:08:32.022Z,1019.38
2023-04-05T05:09:32.021Z,1019.36
2023-04-05T05:10:32.015Z,1019.38
2023-04-05T05:12:32.006Z,1019.36
2023-04-05T05:13:32.004Z,1019.33
2023-04-05T05:14:32.315Z,1019.33
2023-04-05T05:15:31.988Z,1019.35
2023-04-05T05:16:32.042Z,1019.36
2023-04-05T05:17:32.036Z,1019.33
2023-04-05T05:18:31.967Z,1019.32
2023-04-05T05:19:31.995Z,1019.31
2023-04-05T05:20:31.961Z,1019.36
2023-04-05T05:21:31.963Z,1019.31
2023-04-05T05:22:31.947Z,1019.37
2023-04-05T05:23:31.953Z,1019.38
2023-04-05T05:24:31.937Z,1019.35
2023-04-05T05:25:31.943Z,1019.34
2023-04-05T05:26:31.928Z,1019.33
2023-04-05T05:27:31.927Z,1019.32
2023-04-05T05:28:31.924Z,1019.37
2023-04-05T05:29:31.919Z,1019.35
2023-04-05T05:30:31.922Z,1019.25
2023-04-05T05:31:31.979Z,1019.26
2023-04-05T05:32:31.926Z,1019.28
2023-04-05T05:33:31.903Z,1019.29
2023-04-05T05:34:31.905Z,1019.29
2023-04-05T05:35:31.990Z,1019.26
2023-04-05T05:36:31.881Z,1019.29
2023-04-05T05:37:31.911Z,1019.29
2023-04-05T05:38:31.901Z,1019.29
2023-04-05T05:39:31.869Z,1019.29
2023-04-05T05:40:31.862Z,1019.28
2023-04-05T05:41:31.874Z,1019.29
2023-04-05T05:42:31.848Z,1019.30
2023-04-05T05:43:31.866Z,1019.28
2023-04-05T05:44:31.856Z,1019.31
2023-04-05T05:45:31.840Z,1019.32
2023-04-05T05:46:31.838Z,1019.26
2023-04-05T05:47:31.908Z,1019.29
2023-04-05T05:48:31.828Z,1019.22
2023-04-05T05:49:31.825Z,1019.19
2023-04-05T05:50:31.814Z,1019.21
2023-04-05T05:51:31.835Z,1019.17
2023-04-05T05:52:31.826Z,1019.20
2023-04-05T05:53:31.801Z,1019.18
2023-04-05T05:54:31.792Z,1019.14
2023-04-05T05:55:31.800Z,1019.14
2023-04-05T05:56:31.794Z,1019.17
2023-04-05T05:57:31.856Z,1019.23
2023-04-05T05:58:31.785Z,1019.24
2023-04-05T05:59:31.838Z,1019.30
2023-04-05T06:00:31.792Z,1019.34
2023-04-05T06:01:31.765Z,1019.41
2023-04-05T06:02:31.778Z,1019.44
2023-04-05T06:03:32.015Z,1019.55
2023-04-05T06:04:31.796Z,1019.56
2023-04-05T06:05:31.775Z,1019.57
2023-04-05T06:06:31.744Z,1019.54
2023-04-05T06:07:31.764Z,1019.47
2023-04-05T06:08:31.735Z,1019.49
2023-04-05T06:09:31.743Z,1019.53
2023-04-05T06:10:31.738Z,1019.52
2023-04-05T06:11:31.736Z,1019.48
2023-04-05T06:12:31.721Z,1019.50
2023-04-05T06:13:31.733Z,1019.51
2023-04-05T06:14:31.710Z,1019.47
2023-04-05T06:15:31.706Z,1019.47
2023-04-05T06:16:31.718Z,1019.49
2023-04-05T06:17:31.745Z,1019.50
2023-04-05T06:18:31.690Z,1019.44
2023-04-05T06:19:31.689Z,1019.42
2023-04-05T06:20:31.686Z,1019.41
2023-04-05T06:21:31.696Z,1019.44
2023-04-05T06:22:31.686Z,1019.52
2023-04-05T06:23:31.701Z,1019.53
2023-04-05T06:24:31.700Z,1019.49
2023-04-05T06:25:31.682Z,1019.43
2023-04-05T06:26:31.662Z,1019.46
2023-04-05T06:27:31.656Z,1019.50
2023-04-05T06:28:31.646Z,1019.52
2023-04-05T06:29:31.644Z,1019.53
2023-04-05T06:30:31.639Z,1019.53
2023-04-05T06:31:31.724Z,1019.52
2023-04-05T06:32:31.669Z,1019.51
2023-04-05T06:33:31.632Z,1019.50
2023-04-05T06:34:31.622Z,1019.55
2023-04-05T06:35:31.633Z,1019.50
2023-04-05T06:36:31.642Z,1019.52
2023-04-05T06:37:31.612Z,1019.53
2023-04-05T06:38:31.603Z,1019.56
2023-04-05T06:39:31.626Z,1019.49
2023-04-05T06:40:31.599Z,1019.49
2023-04-05T06:41:31.593Z,1019.46
2023-04-05T06:42:31.591Z,1019.50
2023-04-05T06:43:31.588Z,1019.50
2023-04-05T06:44:31.577Z,1019.49
2023-04-05T06:45:31.615Z,1019.51
2023-04-05T06:46:31.574Z,1019.49
2023-04-05T06:47:31.629Z,1019.52
2023-04-05T06:48:31.570Z,1019.57
2023-04-05T06:49:31.560Z,1019.57
2023-04-05T06:50:31.556Z,1019.56
2023-04-05T06:51:31.589Z,1019.55
2023-04-05T06:52:31.546Z,1019.51
2023-04-05T06:53:31.554Z,1019.49
2023-04-05T06:54:31.539Z,1019.46
2023-04-05T06:55:31.566Z,1019.38
2023-04-05T06:56:31.551Z,1019.41
2023-04-05T06:57:31.540Z,1019.34
2023-04-05T06:58:31.535Z,1019.39
2023-04-05T06:59:31.544Z,1019.40
2023-04-05T07:00:31.518Z,1019.35
2023-04-05T07:01:31.560Z,1019.34
2023-04-05T07:02:33.119Z,1019.35
2023-04-05T07:03:31.519Z,1019.31
2023-04-05T07:04:31.580Z,1019.31
2023-04-05T07:05:31.517Z,1019.35
2023-04-05T07:06:31.499Z,1019.35
2023-04-05T07:07:31.502Z,1019.37
2023-04-05T07:08:31.499Z,1019.42
2023-04-05T07:09:31.511Z,1019.47
2023-04-05T07:10:31.488Z,1019.52
2023-04-05T07:11:31.526Z,1019.51
2023-04-05T07:12:31.486Z,1019.55
2023-04-05T07:13:31.493Z,1019.55
2023-04-05T07:14:31.486Z,1019.58
2023-04-05T07:15:31.486Z,1019.61
2023-04-05T07:16:31.503Z,1019.62
2023-04-05T07:17:31.506Z,1019.71
2023-04-05T07:18:31.468Z,1019.73
2023-04-05T07:19:31.470Z,1019.75
2023-04-05T07:20:31.454Z,1019.78
2023-04-05T07:21:31.457Z,1019.77
2023-04-05T07:22:31.452Z,1019.81
2023-04-05T07:23:31.458Z,1019.78
2023-04-05T07:24:31.448Z,1019.77
2023-04-05T07:25:31.454Z,1019.79
2023-04-05T07:26:31.436Z,1019.83
2023-04-05T07:27:31.468Z,1019.83
2023-04-05T07:28:31.436Z,1019.91
2023-04-05T07:30:31.435Z,1020.01
2023-04-05T07:31:31.464Z,1020.02
2023-04-05T07:32:31.534Z,1020.03
2023-04-05T07:33:31.439Z,1020.07
2023-04-05T07:34:31.420Z,1020.14
2023-04-05T07:35:31.816Z,1020.17
2023-04-05T07:36:31.424Z,1020.14
2023-04-05T07:37:31.411Z,1020.09
2023-04-05T07:38:31.413Z,1020.02
2023-04-05T07:39:31.406Z,1019.97
2023-04-05T07:40:31.405Z,1020.15
2023-04-05T07:41:31.402Z,1020.19
2023-04-05T07:42:31.402Z,1020.30
2023-04-05T07:43:31.421Z,1020.22
2023-04-05T07:44:31.406Z,1020.24
2023-04-05T07:45:31.401Z,1020.26
2023-04-05T07:46:31.470Z,1020.09
2023-04-05T07:47:31.445Z,1020.29
2023-04-05T07:48:31.402Z,1021.87
2023-04-05T07:49:31.390Z,1023.26
2023-04-05T07:50:31.991Z,1022.60
2023-04-05T07:51:31.390Z,1021.86
2023-04-05T07:52:31.388Z,1022.96
2023-04-05T07:53:31.382Z,1021.48
2023-04-05T07:54:31.383Z,1021.83
2023-04-05T07:55:31.379Z,1022.17
2023-04-05T07:56:31.380Z,1024.52
2023-04-05T07:57:31.377Z,1022.15
2023-04-05T07:58:31.378Z,1021.02
2023-04-05T07:59:31.409Z,1021.50
2023-04-05T08:00:31.378Z,1027.64
2023-04-05T08:01:31.378Z,1022.74
2023-04-05T08:02:31.418Z,1026.59
2023-04-05T08:03:31.530Z,1022.19
2023-04-05T08:04:31.371Z,1021.39
2023-04-05T08:05:31.387Z,1021.30
2023-04-05T08:06:31.366Z,1022.19
2023-04-05T08:07:31.358Z,1028.98
2023-04-05T08:08:31.372Z,1029.55
2023-04-05T08:09:31.358Z,1027.55
2023-04-05T08:10:31.374Z,1032.74
2023-04-05T08:11:31.356Z,1024.03
2023-04-05T08:12:31.360Z,1024.01
2023-04-05T08:13:31.362Z,1025.30
2023-04-05T08:14:31.360Z,1028.52
2023-04-05T08:15:31.374Z,1030.62
2023-04-05T08:16:31.430Z,1023.10
2023-04-05T08:17:31.387Z,1031.82
2023-04-05T08:18:31.357Z,1032.65
2023-04-05T08:19:31.364Z,1026.45
2023-04-05T08:20:31.355Z,1031.13
2023-04-05T08:21:31.354Z,1030.06
2023-04-05T08:22:31.356Z,1026.86
2023-04-05T08:23:31.358Z,1024.29
2023-04-05T08:24:31.448Z,1021.57
2023-04-05T08:25:31.372Z,1022.50
2023-04-05T08:26:31.370Z,1021.61
2023-04-05T08:27:31.367Z,1022.15
2023-04-05T08:28:31.359Z,1025.82
2023-04-05T08:29:31.358Z,1027.89
2023-04-05T08:30:31.362Z,1022.72
2023-04-05T08:31:31.475Z,1022.67
2023-04-05T08:32:31.383Z,1021.61
2023-04-05T08:33:31.428Z,1021.31
2023-04-05T08:34:31.358Z,1021.23
2023-04-05T08:35:31.361Z,1020.69
2023-04-05T08:36:31.358Z,1021.62
2023-04-05T08:37:31.366Z,1022.14
2023-04-05T08:38:31.359Z,1021.45
2023-04-05T08:39:31.357Z,1022.18
2023-04-05T08:40:31.355Z,1022.90
2023-04-05T08:41:31.362Z,1022.88
2023-04-05T08:42:31.389Z,1022.58
2023-04-05T08:43:31.359Z,1022.97
2023-04-05T08:44:31.389Z,1023.41
2023-04-05T08:45:31.389Z,1022.03
2023-04-05T08:46:31.365Z,1020.54
2023-04-05T08:47:31.407Z,1020.30
2023-04-05T08:48:31.379Z,1020.29
2023-04-05T08:49:31.370Z,1020.11
2023-04-05T08:50:31.372Z,1020.10
2023-04-05T08:51:31.379Z,1020.09
2023-04-05T08:52:31.373Z,1020.04
2023-04-05T08:53:31.373Z,1020.29
2023-04-05T08:54:31.369Z,1020.29
2023-04-05T08:55:31.375Z,1020.46
2023-04-05T08:56:31.398Z,1020.16
2023-04-05T08:57:31.388Z,1020.42
2023-04-05T08:58:31.376Z,1022.19
2023-04-05T08:59:31.420Z,1021.50
2023-04-05T09:00:31.369Z,1021.12
2023-04-05T09:01:31.405Z,1021.14
2023-04-05T09:02:31.427Z,1021.87
2023-04-05T09:03:31.622Z,1020.88
2023-04-05T09:04:31.387Z,1021.15
2023-04-05T09:05:31.378Z,1020.26
2023-04-05T09:06:31.371Z,1020.19
2023-04-05T09:07:31.400Z,1020.20
2023-04-05T09:08:31.389Z,1020.11
2023-04-05T09:09:31.391Z,1020.10
2023-04-05T09:10:31.380Z,1020.14
2023-04-05T09:11:31.387Z,1020.23
2023-04-05T09:12:31.379Z,1020.25
2023-04-05T09:13:31.397Z,1020.21
2023-04-05T09:14:31.394Z,1020.16
2023-04-05T09:15:31.387Z,1020.12
2023-04-05T09:16:31.428Z,1019.93
2023-04-05T09:17:31.407Z,1019.81
2023-04-05T09:18:31.407Z,1019.76
2023-04-05T09:19:31.422Z,1019.75
2023-04-05T09:20:31.379Z,1019.72
2023-04-05T09:21:31.384Z,1019.75
2023-04-05T09:22:31.404Z,1019.85
2023-04-05T09:23:31.396Z,1019.94
2023-04-05T09:24:31.386Z,1020.05
2023-04-05T09:25:31.393Z,1020.11
2023-04-05T09:26:32.538Z,1020.23
2023-04-05T09:27:31.389Z,1020.32
2023-04-05T09:28:31.397Z,1020.35
2023-04-05T09:29:31.415Z,1020.08
2023-04-05T09:30:31.416Z,1020.07
2023-04-05T09:31:31.455Z,1020.03
2023-04-05T09:32:31.424Z,1019.99
2023-04-05T09:33:31.389Z,1019.90
2023-04-05T09:34:31.386Z,1019.80
2023-04-05T09:35:31.446Z,1019.68
2023-04-05T09:36:31.394Z,1019.71
2023-04-05T09:37:31.395Z,1019.67
2023-04-05T09:38:31.397Z,1019.72
2023-04-05T09:39:31.393Z,1019.71
2023-04-05T09:40:31.395Z,1019.77
2023-04-05T09:41:31.395Z,1019.83
2023-04-05T09:42:31.402Z,1019.87
2023-04-05T09:43:31.400Z,1019.92
2023-04-05T09:44:31.397Z,1019.97
2023-04-05T09:45:31.399Z,1019.94
2023-04-05T09:46:31.483Z,1019.99
2023-04-05T09:47:31.684Z,1019.89
2023-04-05T09:48:31.393Z,1019.89
2023-04-05T09:49:31.393Z,1019.93
2023-04-05T09:50:31.402Z,1019.89
2023-04-05T09:51:31.425Z,1019.83
2023-04-05T09:52:31.394Z,1019.74
2023-04-05T09:53:31.403Z,1019.70
2023-04-05T09:54:31.395Z,1019.74
2023-04-05T09:55:31.397Z,1019.80
2023-04-05T09:56:31.395Z,1019.89
2023-04-05T09:57:31.411Z,1020.05
2023-04-05T09:58:31.389Z,1020.02
2023-04-05T09:59:31.525Z,1019.91
2023-04-05T10:00:31.401Z,1019.92
2023-04-05T10:01:31.409Z,1019.93
2023-04-05T10:02:31.456Z,1019.92
2023-04-05T10:03:31.497Z,1019.94
2023-04-05T10:04:31.394Z,1019.98
2023-04-05T10:05:31.395Z,1020.06
2023-04-05T10:06:31.388Z,1020.19
2023-04-05T10:07:31.409Z,1020.11
2023-04-05T10:08:31.407Z,1019.99
2023-04-05T10:09:31.398Z,1019.90
2023-04-05T10:10:31.388Z,1019.83
2023-04-05T10:11:31.396Z,1019.78
2023-04-05T10:12:31.387Z,1019.76
2023-04-05T10:13:31.399Z,1019.74
2023-04-05T10:14:31.392Z,1019.71
2023-04-05T10:15:31.399Z,1019.76
2023-04-05T10:16:31.447Z,1019.73
2023-04-05T10:17:31.412Z,1019.78
2023-04-05T10:18:31.393Z,1019.79
2023-04-05T10:19:31.413Z,1019.79
2023-04-05T10:20:31.390Z,1019.81
2023-04-05T10:21:31.393Z,1019.84
2023-04-05T10:22:31.390Z,1019.79
2023-04-05T10:23:31.427Z,1019.77
2023-04-05T10:24:31.389Z,1019.80
2023-04-05T10:25:31.392Z,1019.81
2023-04-05T10:26:31.395Z,1019.75
2023-04-05T10:27:31.442Z,1019.69
2023-04-05T10:28:31.631Z,1019.69
2023-04-05T10:29:31.398Z,1019.65
2023-04-05T10:30:31.396Z,1019.64
2023-04-05T10:31:37.831Z,1019.61
2023-04-05T10:32:31.492Z,1019.65
2023-04-05T10:33:31.456Z,1019.68
2023-04-05T10:34:31.454Z,1019.69
2023-04-05T10:35:31.399Z,1019.64
2023-04-05T10:36:31.470Z,1019.64
2023-04-05T10:37:31.399Z,1019.64
2023-04-05T10:38:31.401Z,1019.66
2023-04-05T10:39:31.477Z,1019.65
2023-04-05T10:40:31.393Z,1019.65
2023-04-05T10:41:31.396Z,1019.53
2023-04-05T10:42:31.437Z,1019.55
2023-04-05T10:43:31.403Z,1019.56
2023-04-05T10:44:31.399Z,1019.69
2023-04-05T10:45:32.636Z,1019.75
2023-04-05T10:46:31.421Z,1019.77
2023-04-05T10:47:31.425Z,1019.62
2023-04-05T10:48:31.484Z,1019.59
2023-04-05T10:49:31.406Z,1019.55
2023-04-05T10:50:31.397Z,1019.59
2023-04-05T10:51:31.397Z,1019.59
2023-04-05T10:52:31.421Z,1019.60
2023-04-05T10:53:31.446Z,1019.61
2023-04-05T10:54:31.398Z,1019.61
2023-04-05T10:55:31.437Z,1019.60
2023-04-05T10:56:31.439Z,1019.59
2023-04-05T10:57:31.404Z,1019.60
2023-04-05T10:58:31.393Z,1019.64
2023-04-05T10:59:31.444Z,1019.62
2023-04-05T11:00:31.413Z,1019.57
2023-04-05T11:01:31.559Z,1019.54
2023-04-05T11:02:31.467Z,1019.52
2023-04-05T11:03:31.553Z,1019.51
2023-04-05T11:04:31.413Z,1019.51
2023-04-05T11:05:31.454Z,1019.44
2023-04-05T11:06:31.411Z,1019.43
2023-04-05T11:07:31.408Z,1019.46
2023-04-05T11:08:31.405Z,1019.49
2023-04-05T11:09:31.401Z,1019.55
2023-04-05T11:10:31.414Z,1019.47
2023-04-05T11:11:31.454Z,1019.50
2023-04-05T11:12:31.401Z,1019.52
2023-04-05T11:13:31.418Z,1019.46
2023-04-05T11:14:31.404Z,1019.42
2023-04-05T11:15:31.413Z,1019.42
2023-04-05T11:16:31.477Z,1019.39
2023-04-05T11:17:31.438Z,1019.37
2023-04-05T11:18:31.401Z,1019.35
2023-04-05T11:19:31.410Z,1019.37
2023-04-05T11:20:31.402Z,1019.41
2023-04-05T11:21:31.428Z,1019.41
2023-04-05T11:22:31.407Z,1019.42
2023-04-05T11:23:31.404Z,1019.42
2023-04-05T11:24:33.126Z,1019.40
2023-04-05T11:25:31.408Z,1019.36
2023-04-05T11:26:31.431Z,1019.31
2023-04-05T11:27:31.440Z,1019.27
2023-04-05T11:28:31.410Z,1019.32
2023-04-05T11:29:31.411Z,1019.37
2023-04-05T11:30:31.408Z,1019.40
2023-04-05T11:31:31.433Z,1019.38
2023-04-05T11:32:31.435Z,1019.41
2023-04-05T11:33:31.419Z,1019.37
2023-04-05T11:34:31.403Z,1019.35
2023-04-05T11:35:31.446Z,1019.39
2023-04-05T11:36:31.528Z,1019.37
2023-04-05T11:37:31.412Z,1019.32
2023-04-05T11:38:31.415Z,1019.32
2023-04-05T11:39:31.427Z,1019.31
2023-04-05T11:40:31.431Z,1019.28
2023-04-05T11:41:31.414Z,1019.32
2023-04-05T11:42:31.416Z,1019.27
2023-04-05T11:43:31.454Z,1019.33
2023-04-05T11:44:31.407Z,1019.30
2023-04-05T11:45:32.251Z,1019.31
2023-04-05T11:46:31.558Z,1019.34
2023-04-05T11:47:31.472Z,1019.33
2023-04-05T11:48:31.405Z,1019.36
2023-04-05T11:49:31.418Z,1019.36
2023-04-05T11:50:31.456Z,1019.36
2023-04-05T11:51:31.416Z,1019.36
2023-04-05T11:52:31.410Z,1019.33
2023-04-05T11:53:31.419Z,1019.35
2023-04-05T11:54:31.406Z,1019.35
2023-04-05T11:55:31.416Z,1019.32
2023-04-05T11:56:31.416Z,1019.33
2023-04-05T11:57:31.413Z,1019.34
2023-04-05T11:58:31.412Z,1019.34
2023-04-05T11:59:31.520Z,1019.29
2023-04-05T12:00:31.411Z,1019.31
2023-04-05T12:01:31.413Z,1019.27
2023-04-05T12:02:31.463Z,1019.28
2023-04-05T12:03:31.663Z,1019.28
2023-04-05T12:04:31.446Z,1019.28
2023-04-05T12:05:31.413Z,1019.28
2023-04-05T12:06:31.412Z,1019.24
2023-04-05T12:07:31.420Z,1019.21
2023-04-05T12:08:31.413Z,1019.17